Time;durP1;ratioP1;P1;durP2;ratioP2;P2;SDS_P1;SDS_P2;PMS_P1;PMS_P2;Temp;Humidity;BMP_temperature;BMP_pressure;BME280_temperature;BME280_humidity;BME280_pressure;Samples;Min_cycle;Max_cycle;Signal;HPM_P1;HPM_P2
2021/03/03 00:02:19;;;;;;;1.50;0.20;;;7.00;99.90;;;;;;5101817;28;20188;-62
2021/03/03 00:04:45;;;;;;;1.53;0.20;;;7.00;99.90;;;;;;5092251;28;20196;-63
2021/03/03 00:07:11;;;;;;;1.53;0.20;;;7.00;99.90;;;;;;5103273;28;20199;-63
2021/03/03 00:09:36;;;;;;;1.50;0.20;;;7.10;99.90;;;;;;5102541;28;20271;-64
2021/03/03 00:12:02;;;;;;;1.60;0.30;;;7.10;99.90;;;;;;5109080;28;20195;-65
2021/03/03 00:14:27;;;;;;;1.60;0.30;;;7.10;99.90;;;;;;5110852;28;20224;-64
2021/03/03 00:16:53;;;;;;;1.70;0.67;;;7.00;99.90;;;;;;5111602;28;20211;-64
2021/03/03 00:19:18;;;;;;;1.50;0.20;;;7.10;99.90;;;;;;5100885;28;20189;-63
2021/03/03 00:21:44;;;;;;;1.50;0.20;;;7.10;99.90;;;;;;5101985;28;20208;-64
2021/03/03 00:24:09;;;;;;;1.80;0.50;;;7.10;99.90;;;;;;5109047;28;20191;-68
2021/03/03 00:26:35;;;;;;;1.80;0.50;;;7.00;99.90;;;;;;5112048;28;20212;-64
2021/03/03 00:29:00;;;;;;;1.53;0.20;;;6.90;99.90;;;;;;5109270;28;20223;-66
2021/03/03 00:31:26;;;;;;;1.70;0.87;;;6.80;99.90;;;;;;5106282;28;20187;-64
2021/03/03 00:33:52;;;;;;;1.50;0.20;;;6.70;99.90;;;;;;5108029;28;20184;-66
2021/03/03 00:36:17;;;;;;;1.50;0.20;;;6.70;99.90;;;;;;5102845;28;20188;-64
2021/03/03 00:38:43;;;;;;;1.50;0.20;;;6.80;99.90;;;;;;5104048;28;20494;-64
2021/03/03 00:41:08;;;;;;;1.57;0.20;;;6.80;99.90;;;;;;5103645;28;20224;-64
2021/03/03 00:43:34;;;;;;;1.50;0.20;;;6.70;99.90;;;;;;5090642;28;20187;-64
2021/03/03 00:46:00;;;;;;;1.53;0.20;;;6.80;99.90;;;;;;5085429;28;20277;-65
2021/03/03 00:48:26;;;;;;;1.53;0.20;;;6.80;99.90;;;;;;5094296;28;20215;-64
2021/03/03 00:50:51;;;;;;;1.50;0.20;;;6.80;99.90;;;;;;5086191;28;20456;-64
2021/03/03 00:53:17;;;;;;;1.50;0.20;;;6.80;99.90;;;;;;5087702;28;20237;-63
2021/03/03 00:55:48;;;;;;;1.53;0.20;;;6.70;99.90;;;;;;5095030;28;20203;-65
2021/03/03 00:58:14;;;;;;;1.53;0.20;;;6.70;99.90;;;;;;5094584;28;20270;-64
2021/03/03 01:00:39;;;;;;;1.50;0.20;;;6.60;99.90;;;;;;5099417;28;20464;-63
2021/03/03 01:03:05;;;;;;;1.50;0.20;;;6.60;99.90;;;;;;5092489;28;20647;-65
2021/03/03 01:05:30;;;;;;;1.50;0.20;;;6.60;99.90;;;;;;5094901;28;20195;-64
2021/03/03 01:07:56;;;;;;;1.53;0.20;;;6.60;99.90;;;;;;5104674;28;20495;-65
2021/03/03 01:10:21;;;;;;;1.60;0.20;;;6.60;99.90;;;;;;5110148;28;20188;-63
2021/03/03 01:12:47;;;;;;;1.50;0.20;;;6.50;99.90;;;;;;5104527;28;20192;-64
2021/03/03 01:15:13;;;;;;;1.53;0.20;;;6.50;99.90;;;;;;5113197;28;20188;-64
2021/03/03 01:17:38;;;;;;;2.23;1.50;;;6.50;99.90;;;;;;5116061;28;20196;-64
2021/03/03 01:20:05;;;;;;;1.50;0.20;;;6.40;99.90;;;;;;5093379;28;20786;-63
2021/03/03 01:22:30;;;;;;;2.17;1.02;;;6.30;99.90;;;;;;5098164;28;20656;-64
2021/03/03 01:24:56;;;;;;;1.50;0.20;;;6.30;99.90;;;;;;5092420;28;20191;-63
2021/03/03 01:27:21;;;;;;;1.50;0.20;;;6.20;99.90;;;;;;5088186;28;20207;-65
2021/03/03 01:29:47;;;;;;;1.50;0.20;;;6.20;99.90;;;;;;5096642;28;20263;-63
2021/03/03 01:32:12;;;;;;;1.57;0.20;;;6.20;99.90;;;;;;5092709;28;20192;-64
2021/03/03 01:34:38;;;;;;;1.53;0.20;;;6.20;99.90;;;;;;5089519;28;20184;-64
2021/03/03 01:37:03;;;;;;;1.77;0.97;;;6.10;99.90;;;;;;5093043;28;20295;-63
2021/03/03 01:39:29;;;;;;;1.50;0.20;;;6.20;99.90;;;;;;5087799;28;20184;-63
2021/03/03 01:41:54;;;;;;;1.50;0.20;;;6.20;99.90;;;;;;5079832;28;20180;-64
2021/03/03 01:44:20;;;;;;;1.60;0.20;;;6.20;99.90;;;;;;5092167;28;20504;-63
2021/03/03 01:46:46;;;;;;;1.50;0.20;;;6.20;99.90;;;;;;5071810;28;20226;-63
2021/03/03 01:49:11;;;;;;;1.50;0.20;;;6.30;99.90;;;;;;5091269;28;20187;-65
2021/03/03 01:51:37;;;;;;;1.50;0.20;;;6.30;99.90;;;;;;5071480;28;20600;-66
2021/03/03 01:54:03;;;;;;;1.53;0.20;;;6.30;99.90;;;;;;5086263;28;20188;-65
2021/03/03 01:56:28;;;;;;;1.50;0.20;;;6.30;99.90;;;;;;5091523;28;20604;-65
2021/03/03 01:58:54;;;;;;;1.60;0.40;;;6.40;99.90;;;;;;5068411;28;20610;-66
2021/03/03 02:01:20;;;;;;;1.50;0.20;;;6.40;99.90;;;;;;5089115;28;20242;-66
2021/03/03 02:03:46;;;;;;;2.00;1.13;;;6.30;99.90;;;;;;5089147;28;20847;-66
2021/03/03 02:06:22;;;;;;;1.90;1.50;;;6.20;99.90;;;;;;5088241;28;20213;-66
2021/03/03 02:09:00;;;;;;;1.58;0.20;;;6.20;99.90;;;;;;5088961;28;20430;-65
2021/03/03 02:11:34;;;;;;;1.73;0.75;;;6.20;99.90;;;;;;5083671;28;20184;-65
2021/03/03 02:14:06;;;;;;;7.40;7.00;;;6.20;99.90;;;;;;5084284;28;20187;-66
2021/03/03 02:16:35;;;;;;;1.52;0.20;;;6.20;99.90;;;;;;5082445;28;20454;-66
2021/03/03 02:19:01;;;;;;;1.50;0.20;;;6.20;99.90;;;;;;5092866;28;20188;-65
2021/03/03 02:21:42;;;;;;;1.58;0.20;;;6.10;99.90;;;;;;5091211;28;20650;-65
2021/03/03 02:24:18;;;;;;;1.50;0.20;;;6.10;99.90;;;;;;5085193;28;20263;-66
2021/03/03 02:26:45;;;;;;;1.60;0.35;;;6.00;99.90;;;;;;5090543;28;20218;-65
2021/03/03 02:29:18;;;;;;;1.52;0.20;;;6.00;99.90;;;;;;5086606;28;20168;-65
2021/03/03 02:31:45;;;;;;;1.70;0.60;;;6.00;99.90;;;;;;5083108;28;20559;-66
2021/03/03 02:34:14;;;;;;;1.58;0.20;;;5.90;99.90;;;;;;5091802;28;20176;-66
2021/03/03 02:36:41;;;;;;;1.60;0.20;;;5.90;99.90;;;;;;5088773;28;20191;-66
2021/03/03 02:39:07;;;;;;;1.55;0.20;;;5.90;99.90;;;;;;5085096;28;20233;-65
2021/03/03 02:41:34;;;;;;;1.50;0.20;;;5.80;99.90;;;;;;5097306;28;20239;-66
2021/03/03 02:44:01;;;;;;;1.50;0.20;;;5.80;99.90;;;;;;5089075;28;20434;-66
2021/03/03 02:46:27;;;;;;;1.50;0.20;;;5.90;99.90;;;;;;5084762;28;20209;-65
2021/03/03 02:48:53;;;;;;;1.53;0.30;;;6.00;99.90;;;;;;5091984;28;20187;-65
2021/03/03 02:51:19;;;;;;;1.58;0.20;;;6.00;99.90;;;;;;5088538;28;20441;-65
2021/03/03 02:53:44;;;;;;;1.50;0.20;;;6.00;99.90;;;;;;5089289;28;20624;-64
2021/03/03 02:56:10;;;;;;;1.53;0.20;;;6.00;99.90;;;;;;5093268;28;20350;-66
2021/03/03 02:58:37;;;;;;;1.53;0.20;;;5.90;99.90;;;;;;5087291;28;20621;-66
2021/03/03 03:01:07;;;;;;;1.50;0.20;;;5.90;99.90;;;;;;5086880;28;20458;-65
2021/03/03 03:03:40;;;;;;;1.52;0.20;;;5.90;99.90;;;;;;5088942;28;20172;-66
2021/03/03 03:06:12;;;;;;;1.58;0.30;;;5.90;99.90;;;;;;5088476;28;20203;-66
2021/03/03 03:08:40;;;;;;;1.50;0.20;;;6.00;99.90;;;;;;5085907;28;20192;-65
2021/03/03 03:11:09;;;;;;;1.58;0.20;;;6.00;99.90;;;;;;5092847;28;20670;-65
2021/03/03 03:13:35;;;;;;;1.55;0.20;;;6.10;99.90;;;;;;5085628;28;20187;-66
2021/03/03 03:16:04;;;;;;;1.58;0.20;;;6.00;99.90;;;;;;5087148;28;20212;-65
2021/03/03 03:18:50;;;;;;;1.50;0.20;;;6.10;99.90;;;;;;5089068;28;20195;-65
2021/03/03 03:21:17;;;;;;;1.50;0.20;;;6.00;99.90;;;;;;5089624;28;20593;-65
2021/03/03 03:23:45;;;;;;;1.50;0.20;;;6.00;99.90;;;;;;5088335;28;20200;-66
2021/03/03 03:26:11;;;;;;;1.55;0.20;;;6.00;99.90;;;;;;5091993;28;20196;-65
2021/03/03 03:28:38;;;;;;;1.50;0.20;;;6.00;99.90;;;;;;5095119;28;20194;-66
2021/03/03 03:31:05;;;;;;;1.50;0.20;;;6.10;99.90;;;;;;5091195;28;20263;-66
2021/03/03 03:33:32;;;;;;;1.60;0.20;;;6.10;99.90;;;;;;5086935;28;20192;-66
2021/03/03 03:35:58;;;;;;;1.60;0.20;;;6.10;99.90;;;;;;5084454;28;20201;-66
2021/03/03 03:38:27;;;;;;;1.52;0.20;;;6.00;99.90;;;;;;5088189;28;20263;-65
2021/03/03 03:40:52;;;;;;;1.55;0.20;;;5.90;99.90;;;;;;5093710;28;20237;-64
2021/03/03 03:43:19;;;;;;;1.50;0.20;;;5.90;99.90;;;;;;5083500;28;20184;-66
2021/03/03 03:45:48;;;;;;;1.88;0.73;;;5.90;99.90;;;;;;5089231;28;20200;-65
2021/03/03 03:48:15;;;;;;;1.55;0.20;;;5.90;99.90;;;;;;5089553;28;20681;-66
2021/03/03 03:50:40;;;;;;;1.60;0.30;;;5.80;99.90;;;;;;5086861;28;20271;-66
2021/03/03 03:53:06;;;;;;;1.53;0.20;;;5.80;99.90;;;;;;5091091;28;20230;-66
2021/03/03 03:55:34;;;;;;;1.50;0.20;;;5.80;99.90;;;;;;5088391;28;20275;-66
2021/03/03 03:58:00;;;;;;;1.60;0.20;;;5.80;99.90;;;;;;5084723;28;20565;-65
2021/03/03 04:00:27;;;;;;;1.50;0.20;;;5.80;99.90;;;;;;5090167;28;20181;-65
2021/03/03 04:02:53;;;;;;;1.58;0.20;;;5.80;99.90;;;;;;5086181;28;20599;-66
2021/03/03 04:05:19;;;;;;;6.80;3.00;;;5.80;99.90;;;;;;5085569;28;20184;-66
2021/03/03 04:07:45;;;;;;;1.52;0.20;;;5.80;99.90;;;;;;5085195;28;20872;-65
2021/03/03 04:10:16;;;;;;;1.57;0.20;;;5.70;99.90;;;;;;5088604;28;20215;-66
2021/03/03 04:12:42;;;;;;;1.50;0.20;;;5.70;99.90;;;;;;5086996;28;20431;-65
2021/03/03 04:15:09;;;;;;;1.53;0.20;;;5.80;99.90;;;;;;5089445;28;20171;-65
2021/03/03 04:17:36;;;;;;;5.40;4.90;;;5.70;99.90;;;;;;5083222;28;20563;-65
2021/03/03 04:20:02;;;;;;;1.58;0.20;;;5.70;99.90;;;;;;5088913;28;20188;-64
2021/03/03 04:22:28;;;;;;;1.60;0.30;;;5.80;99.90;;;;;;5086924;28;20168;-65
2021/03/03 04:24:53;;;;;;;1.60;0.20;;;5.80;99.90;;;;;;5088023;28;20267;-65
2021/03/03 04:27:19;;;;;;;1.53;0.20;;;5.80;99.90;;;;;;5070747;28;20222;-65
2021/03/03 04:29:45;;;;;;;1.50;0.20;;;5.80;99.90;;;;;;5095571;28;20187;-66
2021/03/03 04:32:10;;;;;;;1.50;0.20;;;5.80;99.90;;;;;;5085494;28;20191;-65
2021/03/03 04:34:35;;;;;;;1.60;0.43;;;5.80;99.90;;;;;;5093522;28;20179;-66
2021/03/03 04:37:01;;;;;;;1.57;0.20;;;5.90;99.90;;;;;;5095266;28;20229;-66
2021/03/03 04:39:27;;;;;;;1.50;0.20;;;5.80;99.90;;;;;;5083173;28;20176;-65
2021/03/03 04:41:52;;;;;;;1.50;0.20;;;5.70;99.90;;;;;;5092078;28;20430;-65
2021/03/03 04:44:18;;;;;;;2.00;1.63;;;5.70;99.90;;;;;;5088982;28;20195;-65
2021/03/03 04:46:43;;;;;;;2.20;2.00;;;5.70;99.90;;;;;;5089894;28;20287;-66
2021/03/03 04:49:09;;;;;;;1.70;0.30;;;5.60;99.90;;;;;;5092436;28;20180;-65
2021/03/03 04:51:35;;;;;;;1.60;0.20;;;5.60;99.90;;;;;;5089279;28;20528;-65
2021/03/03 04:54:02;;;;;;;1.58;0.20;;;5.70;99.90;;;;;;5091326;28;20180;-64
2021/03/03 04:56:27;;;;;;;8.23;1.85;;;5.60;99.90;;;;;;5087570;28;20574;-62
2021/03/03 04:58:53;;;;;;;1.60;0.20;;;5.60;99.90;;;;;;5088199;28;20200;-66
2021/03/03 05:01:18;;;;;;;1.70;0.50;;;5.60;99.90;;;;;;5091286;28;20180;-65
2021/03/03 05:03:44;;;;;;;2.53;2.00;;;5.60;99.90;;;;;;5090689;28;20261;-65
2021/03/03 05:06:09;;;;;;;5.10;2.20;;;5.50;99.90;;;;;;5084116;28;20207;-65
2021/03/03 05:08:35;;;;;;;2.47;2.27;;;5.40;99.90;;;;;;5092795;28;20192;-65
2021/03/03 05:11:00;;;;;;;2.20;0.70;;;5.30;99.90;;;;;;5091577;28;20203;-65
2021/03/03 05:13:26;;;;;;;2.00;1.40;;;5.40;99.90;;;;;;5090875;28;20180;-66
2021/03/03 05:15:51;;;;;;;1.80;0.93;;;5.40;99.90;;;;;;5092255;28;20188;-66
2021/03/03 05:18:17;;;;;;;1.80;0.87;;;5.40;99.90;;;;;;5088654;28;20196;-65
2021/03/03 05:20:42;;;;;;;1.80;0.77;;;5.40;99.90;;;;;;5085992;28;20271;-68
2021/03/03 05:23:08;;;;;;;1.50;0.20;;;5.40;99.90;;;;;;5075072;28;20559;-66
2021/03/03 05:25:34;;;;;;;1.90;1.10;;;5.30;99.90;;;;;;5091373;28;20190;-66
2021/03/03 05:28:00;;;;;;;2.50;1.87;;;5.30;99.90;;;;;;5091106;28;20286;-65
2021/03/03 05:30:26;;;;;;;1.58;0.20;;;5.30;99.90;;;;;;5089489;28;20191;-65
2021/03/03 05:32:52;;;;;;;12.17;7.03;;;5.20;99.90;;;;;;5087653;28;20183;-65
2021/03/03 05:35:18;;;;;;;2.40;0.93;;;5.10;99.90;;;;;;5089973;28;20434;-65
2021/03/03 05:37:43;;;;;;;1.80;0.88;;;5.00;99.90;;;;;;5090557;28;20477;-63
2021/03/03 05:40:10;;;;;;;11.33;5.20;;;5.00;99.90;;;;;;5085324;28;20201;-66
2021/03/03 05:42:36;;;;;;;1.60;0.20;;;4.90;99.90;;;;;;5093031;28;20180;-65
2021/03/03 05:45:04;;;;;;;5.72;2.00;;;4.90;99.90;;;;;;5090820;28;20209;-66
2021/03/03 05:47:35;;;;;;;1.60;0.20;;;5.00;99.90;;;;;;5087710;28;20208;-66
2021/03/03 05:50:03;;;;;;;1.60;0.20;;;5.00;99.90;;;;;;5093759;28;20263;-66
2021/03/03 05:52:31;;;;;;;1.58;0.20;;;5.00;99.90;;;;;;5090714;28;20195;-66
2021/03/03 05:54:57;;;;;;;1.60;0.20;;;5.10;99.90;;;;;;5087992;28;20184;-65
2021/03/03 05:57:22;;;;;;;20.07;1.90;;;5.20;99.90;;;;;;5092656;28;20215;-65
2021/03/03 05:59:48;;;;;;;2.23;1.20;;;5.20;99.90;;;;;;5085468;28;20193;-65
2021/03/03 06:02:14;;;;;;;9.00;2.05;;;5.10;99.90;;;;;;5089405;28;20647;-65
2021/03/03 06:04:40;;;;;;;2.35;1.98;;;5.20;99.90;;;;;;5091377;28;20180;-64
2021/03/03 06:07:07;;;;;;;1.60;0.20;;;5.10;99.90;;;;;;5092062;28;20206;-64
2021/03/03 06:09:32;;;;;;;1.60;0.20;;;5.10;99.90;;;;;;5091430;28;20454;-65
2021/03/03 06:11:58;;;;;;;2.90;1.73;;;5.10;99.90;;;;;;5090883;28;20233;-64
2021/03/03 06:14:23;;;;;;;1.57;0.20;;;5.00;99.90;;;;;;5088584;28;20681;-66
2021/03/03 06:16:49;;;;;;;1.53;0.20;;;5.00;99.90;;;;;;5089126;28;20204;-65
2021/03/03 06:19:16;;;;;;;1.60;0.30;;;5.10;99.90;;;;;;5090909;28;20527;-65
2021/03/03 06:21:42;;;;;;;1.60;0.20;;;5.10;99.90;;;;;;5086936;28;20570;-65
2021/03/03 06:24:10;;;;;;;1.60;0.20;;;5.20;99.90;;;;;;5091447;28;20184;-65
2021/03/03 06:26:55;;;;;;;1.73;0.47;;;5.20;99.90;;;;;;5087247;28;20196;-65
2021/03/03 06:29:20;;;;;;;10.45;7.20;;;5.20;99.90;;;;;;5086085;28;20191;-65
2021/03/03 06:31:46;;;;;;;12.60;4.80;;;5.10;99.90;;;;;;5096795;28;20192;-65
2021/03/03 06:34:16;;;;;;;1.67;0.20;;;5.00;99.90;;;;;;5087466;28;20186;-63
2021/03/03 06:36:47;;;;;;;7.45;4.00;;;5.00;99.90;;;;;;5087015;28;20535;-67
2021/03/03 06:39:23;;;;;;;1.70;0.20;;;5.10;99.90;;;;;;5088472;28;20188;-64
2021/03/03 06:41:57;;;;;;;4.40;3.13;;;5.10;99.90;;;;;;5091000;28;20257;-63
2021/03/03 06:44:24;;;;;;;2.72;2.05;;;5.10;99.90;;;;;;5087335;28;20211;-62
2021/03/03 06:47:08;;;;;;;4.80;2.85;;;5.00;99.90;;;;;;5084847;28;20218;-63
2021/03/03 06:49:34;;;;;;;4.75;1.65;;;5.10;99.90;;;;;;5086701;28;20199;-63
2021/03/03 06:51:59;;;;;;;7.83;4.07;;;5.00;99.90;;;;;;5086558;28;20180;-63
2021/03/03 06:54:25;;;;;;;3.70;1.80;;;5.00;99.90;;;;;;5067827;28;20459;-66
2021/03/03 06:56:53;;;;;;;1.60;0.30;;;5.10;99.90;;;;;;5087695;28;20524;-66
2021/03/03 06:59:24;;;;;;;3.55;2.55;;;5.00;99.90;;;;;;5085853;28;20437;-66
2021/03/03 07:01:52;;;;;;;8.93;2.10;;;5.00;99.90;;;;;;5089549;28;20587;-66
2021/03/03 07:04:38;;;;;;;9.32;5.97;;;5.00;99.90;;;;;;5089311;28;20183;-66
2021/03/03 07:07:15;;;;;;;9.95;6.50;;;4.90;99.90;;;;;;5087997;28;20214;-66
2021/03/03 07:10:01;;;;;;;1.67;0.20;;;4.90;99.90;;;;;;5090349;28;20241;-66
2021/03/03 07:12:30;;;;;;;6.03;4.47;;;5.00;99.90;;;;;;5086821;28;20175;-66
2021/03/03 07:14:57;;;;;;;3.30;1.42;;;5.10;99.90;;;;;;5086541;28;20273;-66
2021/03/03 07:17:23;;;;;;;1.80;0.57;;;5.10;99.90;;;;;;5090133;28;20207;-66
2021/03/03 07:19:50;;;;;;;1.67;0.20;;;5.10;99.90;;;;;;5088515;28;20237;-65
2021/03/03 07:22:22;;;;;;;2.05;0.90;;;5.10;99.90;;;;;;5083738;28;20184;-65
2021/03/03 07:24:51;;;;;;;2.28;1.35;;;5.20;99.90;;;;;;5087551;28;20259;-66
2021/03/03 07:27:20;;;;;;;3.88;1.65;;;5.20;99.90;;;;;;5090555;28;20199;-66
2021/03/03 07:29:51;;;;;;;8.70;5.65;;;5.30;99.90;;;;;;5086320;28;20184;-66
2021/03/03 07:32:18;;;;;;;6.75;3.95;;;5.30;99.90;;;;;;5091682;28;20184;-66
2021/03/03 07:34:50;;;;;;;20.10;7.93;;;5.30;99.90;;;;;;5090464;28;20255;-66
2021/03/03 07:37:18;;;;;;;1.63;0.20;;;5.20;99.90;;;;;;5092491;28;20215;-66
2021/03/03 07:39:54;;;;;;;1.60;0.20;;;5.20;99.90;;;;;;5086911;28;20678;-66
2021/03/03 07:42:23;;;;;;;6.32;4.63;;;5.20;99.90;;;;;;5101383;28;20191;-66
2021/03/03 07:44:50;;;;;;;2.60;0.63;;;5.30;99.90;;;;;;5089729;28;20651;-66
2021/03/03 07:47:17;;;;;;;1.80;0.60;;;5.30;99.90;;;;;;5107778;28;20223;-66
2021/03/03 07:49:45;;;;;;;1.70;0.30;;;5.30;99.90;;;;;;5109355;28;20151;-66
2021/03/03 07:52:13;;;;;;;1.70;0.20;;;5.40;99.90;;;;;;5108905;28;20577;-66
2021/03/03 07:54:39;;;;;;;6.18;1.95;;;5.50;99.90;;;;;;5112419;28;20180;-66
2021/03/03 07:57:07;;;;;;;4.13;2.10;;;5.60;99.90;;;;;;5110267;28;20218;-66
2021/03/03 07:59:32;;;;;;;3.45;2.47;;;5.50;99.90;;;;;;5069734;28;20463;-66
2021/03/03 08:01:58;;;;;;;4.00;2.03;;;5.50;99.90;;;;;;5089365;28;20278;-64
2021/03/03 08:04:37;;;;;;;4.67;2.20;;;5.60;99.90;;;;;;5108535;28;20253;-66
2021/03/03 08:07:26;;;;;;;5.00;2.90;;;5.60;99.90;;;;;;5093749;28;20199;-65
2021/03/03 08:10:13;;;;;;;1.65;0.20;;;5.60;99.90;;;;;;5089883;28;20176;-66
2021/03/03 08:13:07;;;;;;;1.63;0.20;;;5.70;99.90;;;;;;5103486;28;20180;-65
2021/03/03 08:15:34;;;;;;;1.60;0.20;;;5.80;99.90;;;;;;5114586;28;20195;-65
2021/03/03 08:18:16;;;;;;;1.70;0.45;;;5.90;99.90;;;;;;5106255;28;20192;-64
2021/03/03 08:20:43;;;;;;;1.70;0.30;;;6.00;99.90;;;;;;5104794;28;20255;-64
2021/03/03 08:23:09;;;;;;;3.78;2.63;;;6.20;99.90;;;;;;5091577;28;20522;-66
2021/03/03 08:25:42;;;;;;;2.93;0.87;;;6.20;99.90;;;;;;5083752;28;20173;-66
2021/03/03 08:28:23;;;;;;;3.10;1.40;;;6.20;99.90;;;;;;5090238;28;20468;-65
2021/03/03 08:31:07;;;;;;;8.57;6.20;;;6.20;99.90;;;;;;5089296;28;20258;-65
2021/03/03 08:33:34;;;;;;;9.98;6.43;;;6.20;99.90;;;;;;5084424;28;20187;-66
2021/03/03 08:35:59;;;;;;;1.60;0.20;;;6.20;99.90;;;;;;5092771;28;20226;-64
2021/03/03 08:38:25;;;;;;;1.77;0.63;;;6.20;99.90;;;;;;5085059;28;20623;-66
2021/03/03 08:40:50;;;;;;;1.60;0.20;;;6.40;99.90;;;;;;5083105;28;20185;-65
2021/03/03 08:43:35;;;;;;;1.70;0.40;;;6.40;99.90;;;;;;5092492;28;20199;-66
2021/03/03 08:46:20;;;;;;;1.70;0.20;;;6.50;99.90;;;;;;5089557;28;20199;-65
2021/03/03 08:49:09;;;;;;;2.87;2.50;;;6.50;99.90;;;;;;5088630;28;20186;-65
2021/03/03 08:51:42;;;;;;;1.65;0.20;;;6.40;99.90;;;;;;5082863;28;20470;-65
2021/03/03 08:54:09;;;;;;;10.25;9.23;;;6.50;99.90;;;;;;5090064;28;20234;-64
2021/03/03 08:56:40;;;;;;;7.72;4.45;;;6.60;99.90;;;;;;5084273;28;20566;-65
2021/03/03 08:59:32;;;;;;;4.32;1.20;;;6.60;99.90;;;;;;5087048;28;20212;-65
2021/03/03 09:02:07;;;;;;;1.63;0.20;;;6.60;99.90;;;;;;5079331;28;20676;-65
2021/03/03 09:04:40;;;;;;;12.40;7.35;;;6.60;99.90;;;;;;5086094;28;20176;-65
2021/03/03 09:07:14;;;;;;;8.30;2.88;;;6.70;99.90;;;;;;5083689;28;20192;-65
2021/03/03 09:09:42;;;;;;;2.45;1.10;;;6.70;99.90;;;;;;5088839;28;20539;-65
2021/03/03 09:12:10;;;;;;;1.60;0.20;;;6.70;99.90;;;;;;5084721;28;20179;-65
2021/03/03 09:14:37;;;;;;;1.65;0.20;;;6.80;99.90;;;;;;5088274;28;20180;-65
2021/03/03 09:17:05;;;;;;;1.60;0.20;;;6.90;99.90;;;;;;5110081;28;20173;-65
2021/03/03 09:19:32;;;;;;;2.63;2.00;;;6.90;99.90;;;;;;5114327;28;20222;-65
2021/03/03 09:21:59;;;;;;;1.63;0.27;;;7.10;99.90;;;;;;5106805;28;20430;-65
2021/03/03 09:24:25;;;;;;;2.00;0.55;;;7.10;99.90;;;;;;5099500;28;20450;-65
2021/03/03 09:27:04;;;;;;;1.80;0.70;;;7.10;99.90;;;;;;5093861;28;20195;-66
2021/03/03 09:29:33;;;;;;;10.80;7.40;;;7.20;99.90;;;;;;5086950;28;20580;-65
2021/03/03 09:32:05;;;;;;;6.77;4.53;;;7.10;99.90;;;;;;5093700;28;20434;-64
2021/03/03 09:34:32;;;;;;;1.80;0.50;;;7.10;99.90;;;;;;5088408;28;20430;-65
2021/03/03 09:37:00;;;;;;;1.60;0.20;;;7.10;99.90;;;;;;5087268;28;20461;-64
2021/03/03 09:39:27;;;;;;;13.60;4.10;;;7.20;99.90;;;;;;5091621;28;20429;-65
2021/03/03 09:42:04;;;;;;;3.70;2.50;;;7.30;99.90;;;;;;5091963;28;20430;-65
2021/03/03 09:44:44;;;;;;;2.40;1.57;;;7.30;99.90;;;;;;5084720;28;20432;-65
2021/03/03 09:47:09;;;;;;;1.60;0.20;;;7.30;99.90;;;;;;5092047;28;20539;-65
2021/03/03 09:49:37;;;;;;;2.90;2.00;;;7.40;99.90;;;;;;5093677;28;20519;-66
2021/03/03 09:52:03;;;;;;;1.60;0.20;;;7.60;99.90;;;;;;5088012;28;20172;-65
2021/03/03 09:54:38;;;;;;;1.70;0.57;;;7.60;99.90;;;;;;5094772;28;20495;-66
2021/03/03 09:57:08;;;;;;;3.40;1.70;;;7.60;99.90;;;;;;5091283;28;20445;-66
2021/03/03 09:59:35;;;;;;;1.73;0.60;;;7.60;99.90;;;;;;5086291;28;20443;-65
2021/03/03 10:02:02;;;;;;;3.77;3.40;;;7.70;99.90;;;;;;5091512;28;20430;-66
2021/03/03 10:04:29;;;;;;;1.70;0.20;;;7.60;99.90;;;;;;5084558;28;20437;-65
2021/03/03 10:06:55;;;;;;;1.60;0.20;;;7.70;99.90;;;;;;5090498;28;20799;-66
2021/03/03 10:09:21;;;;;;;1.60;0.20;;;7.80;99.90;;;;;;5093849;28;20566;-66
2021/03/03 10:11:47;;;;;;;1.60;0.20;;;7.90;99.90;;;;;;5089434;28;20437;-67
2021/03/03 10:14:13;;;;;;;1.60;0.30;;;7.90;99.90;;;;;;5090186;28;20510;-66
2021/03/03 10:16:39;;;;;;;2.27;1.70;;;8.00;99.90;;;;;;5072894;28;20218;-64
2021/03/03 10:19:08;;;;;;;1.90;0.47;;;8.10;99.90;;;;;;5091803;28;20575;-65
2021/03/03 10:21:43;;;;;;;1.60;0.20;;;8.10;99.90;;;;;;5089538;28;20658;-65
2021/03/03 10:24:20;;;;;;;1.60;0.20;;;8.10;99.90;;;;;;5093291;28;20934;-65
2021/03/03 10:26:48;;;;;;;9.40;5.63;;;8.10;99.90;;;;;;5086387;28;20454;-67
2021/03/03 10:29:33;;;;;;;2.10;0.97;;;8.20;99.90;;;;;;5086452;28;20446;-66
2021/03/03 10:32:14;;;;;;;4.77;4.37;;;8.20;99.90;;;;;;5067754;28;20882;-66
2021/03/03 10:34:41;;;;;;;7.90;0.83;;;8.30;99.90;;;;;;5080319;28;20442;-66
2021/03/03 10:37:07;;;;;;;1.60;0.20;;;8.20;99.90;;;;;;5093794;28;20969;-66
2021/03/03 10:39:34;;;;;;;11.63;6.70;;;8.30;99.90;;;;;;5102954;28;20438;-66
2021/03/03 10:42:06;;;;;;;2.67;1.30;;;8.30;99.90;;;;;;5090043;28;21003;-66
2021/03/03 10:44:40;;;;;;;1.60;0.20;;;8.30;99.90;;;;;;5083501;28;20446;-66
2021/03/03 10:47:06;;;;;;;1.60;0.20;;;8.40;99.90;;;;;;5085981;28;20520;-67
2021/03/03 10:49:35;;;;;;;9.03;6.30;;;8.50;99.90;;;;;;5089950;28;20505;-67
2021/03/03 10:52:00;;;;;;;1.60;0.20;;;8.50;99.90;;;;;;5087309;28;20419;-65
2021/03/03 10:54:33;;;;;;;2.13;0.80;;;8.50;99.90;;;;;;5089524;28;20429;-66
2021/03/03 10:57:08;;;;;;;1.60;0.20;;;8.70;99.90;;;;;;5089135;28;20214;-66
2021/03/03 10:59:34;;;;;;;1.70;0.50;;;8.80;99.90;;;;;;5085649;28;20939;-66
2021/03/03 11:02:01;;;;;;;3.00;1.53;;;8.80;99.90;;;;;;5093105;28;20418;-65
2021/03/03 11:04:46;;;;;;;3.40;1.50;;;9.00;99.90;;;;;;5086494;28;20565;-66
2021/03/03 11:07:14;;;;;;;1.60;0.20;;;9.10;99.90;;;;;;5090956;28;20520;-66
2021/03/03 11:09:39;;;;;;;5.10;3.47;;;9.10;99.90;;;;;;5092436;28;20492;-67
2021/03/03 11:12:06;;;;;;;1.60;0.20;;;9.10;99.90;;;;;;5087454;28;21008;-65
2021/03/03 11:14:32;;;;;;;5.27;3.70;;;9.20;99.90;;;;;;5088425;28;20633;-66
2021/03/03 11:16:59;;;;;;;7.20;4.07;;;9.20;99.90;;;;;;5096188;28;20453;-65
2021/03/03 11:19:26;;;;;;;1.60;0.20;;;9.40;99.90;;;;;;5088242;28;20478;-66
2021/03/03 11:21:52;;;;;;;10.53;5.93;;;9.40;99.90;;;;;;5090779;28;20430;-67
2021/03/03 11:24:18;;;;;;;2.00;1.07;;;9.50;99.90;;;;;;5086887;28;20445;-66
2021/03/03 11:26:45;;;;;;;1.50;0.20;;;9.60;99.90;;;;;;5087432;28;20960;-65
2021/03/03 11:29:11;;;;;;;12.37;8.13;;;9.70;99.90;;;;;;5099460;28;20434;-66
2021/03/03 11:31:37;;;;;;;1.80;0.90;;;9.80;99.90;;;;;;5089992;28;20445;-66
2021/03/03 11:34:03;;;;;;;1.70;0.60;;;9.90;99.90;;;;;;5085498;28;20498;-66
2021/03/03 11:36:29;;;;;;;1.53;0.20;;;10.00;99.90;;;;;;5094532;28;20649;-66
2021/03/03 11:38:55;;;;;;;7.67;4.33;;;10.10;99.90;;;;;;5090394;28;20983;-67
2021/03/03 11:41:21;;;;;;;1.57;0.20;;;10.20;99.90;;;;;;5089635;28;20278;-67
2021/03/03 11:43:47;;;;;;;4.07;2.87;;;10.30;99.90;;;;;;5095984;28;20473;-67
2021/03/03 11:46:13;;;;;;;1.57;0.20;;;10.40;99.90;;;;;;5091802;28;20813;-68
2021/03/03 11:48:39;;;;;;;8.70;4.97;;;10.50;99.90;;;;;;5091222;28;20955;-67
2021/03/03 11:51:05;;;;;;;9.00;5.63;;;10.60;99.90;;;;;;5096697;28;20448;-66
2021/03/03 11:53:30;;;;;;;2.63;1.90;;;10.80;99.90;;;;;;5092209;28;20581;-66
2021/03/03 11:55:56;;;;;;;6.03;4.53;;;10.80;99.90;;;;;;5086941;28;20282;-66
2021/03/03 11:58:21;;;;;;;5.40;4.57;;;10.90;99.90;;;;;;5095280;28;20207;-67
2021/03/03 12:00:47;;;;;;;8.37;2.33;;;11.00;99.90;;;;;;5089212;28;20184;-66
2021/03/03 12:03:13;;;;;;;6.60;3.60;;;11.10;99.90;;;;;;5096581;28;20492;-65
2021/03/03 12:05:38;;;;;;;7.20;4.77;;;11.20;99.90;;;;;;5095966;28;20175;-67
2021/03/03 12:08:06;;;;;;;1.60;0.30;;;11.20;99.90;;;;;;5089342;28;20183;-66
2021/03/03 12:10:36;;;;;;;8.67;6.73;;;11.30;99.90;;;;;;5107728;28;20215;-67
2021/03/03 12:13:01;;;;;;;1.50;0.20;;;11.30;99.90;;;;;;5100440;28;20426;-67
2021/03/03 12:15:27;;;;;;;4.40;2.73;;;11.40;99.90;;;;;;5108025;28;20436;-67
2021/03/03 12:17:53;;;;;;;2.63;1.20;;;11.40;99.90;;;;;;5108437;28;20290;-68
2021/03/03 12:20:19;;;;;;;3.50;2.73;;;11.60;99.60;;;;;;5106299;28;20187;-66
2021/03/03 12:22:45;;;;;;;7.53;2.40;;;11.60;99.10;;;;;;5099500;28;20204;-68
2021/03/03 12:25:11;;;;;;;2.20;1.43;;;11.70;98.80;;;;;;5095135;28;20275;-66
2021/03/03 12:27:37;;;;;;;9.43;6.23;;;11.80;99.20;;;;;;5091475;28;20469;-66
2021/03/03 12:30:03;;;;;;;2.93;2.17;;;11.80;97.60;;;;;;5100163;28;20438;-66
2021/03/03 12:32:29;;;;;;;1.90;0.67;;;12.00;97.30;;;;;;5096210;28;20191;-65
2021/03/03 12:34:54;;;;;;;1.50;0.20;;;12.10;96.90;;;;;;5093833;28;20479;-67
2021/03/03 12:37:20;;;;;;;1.50;0.20;;;12.10;96.30;;;;;;5100903;28;20822;-68
2021/03/03 12:39:45;;;;;;;1.60;0.37;;;12.10;96.10;;;;;;5095195;28;20262;-66
2021/03/03 12:42:11;;;;;;;8.93;5.80;;;12.10;96.10;;;;;;5087541;28;20678;-68
2021/03/03 12:44:38;;;;;;;1.90;0.60;;;12.30;95.60;;;;;;5102674;28;20210;-70
2021/03/03 12:47:04;;;;;;;1.90;1.03;;;12.30;95.40;;;;;;5105386;28;20249;-66
2021/03/03 12:49:30;;;;;;;1.50;0.20;;;12.30;94.70;;;;;;5098310;28;20450;-66
2021/03/03 12:51:55;;;;;;;1.70;0.40;;;12.40;94.90;;;;;;5087722;28;20838;-68
2021/03/03 12:54:21;;;;;;;2.40;0.93;;;12.50;94.50;;;;;;5091041;28;20279;-66
2021/03/03 12:56:46;;;;;;;2.07;0.77;;;12.60;94.30;;;;;;5105584;28;20283;-66
2021/03/03 12:59:12;;;;;;;1.50;0.20;;;12.70;93.20;;;;;;5098296;28;20212;-66
2021/03/03 13:01:37;;;;;;;4.93;2.50;;;12.70;92.70;;;;;;5103827;28;20188;-66